sensor_id;sensor_type;location;lat;lon;timestamp;P1;durP1;ratioP1;P2;durP2;ratioP2
35699;SDS011;21818;51.078;12.108;2023-05-10T00:01:05;3.63;;;2.47;;
35699;SDS011;21818;51.078;12.108;2023-05-10T00:03:31;3.35;;;2.42;;
35699;SDS011;21818;51.078;12.108;2023-05-10T00:05:56;3.47;;;2.50;;
35699;SDS011;21818;51.078;12.108;2023-05-10T00:08:22;4.45;;;2.63;;
35699;SDS011;21818;51.078;12.108;2023-05-10T00:10:48;3.28;;;2.65;;
35699;SDS011;21818;51.078;12.108;2023-05-10T00:13:13;3.45;;;2.30;;
35699;SDS011;21818;51.078;12.108;2023-05-10T00:15:39;3.10;;;2.17;;
35699;SDS011;21818;51.078;12.108;2023-05-10T00:18:05;4.00;;;2.33;;
35699;SDS011;21818;51.078;12.108;2023-05-10T00:20:30;4.72;;;2.00;;
35699;SDS011;21818;51.078;12.108;2023-05-10T00:22:56;4.07;;;2.53;;
35699;SDS011;21818;51.078;12.108;2023-05-10T00:25:21;2.47;;;2.08;;
35699;SDS011;21818;51.078;12.108;2023-05-10T00:27:47;5.55;;;2.00;;
35699;SDS011;21818;51.078;12.108;2023-05-10T00:30:13;4.65;;;2.08;;
35699;SDS011;21818;51.078;12.108;2023-05-10T00:32:38;3.92;;;2.30;;
35699;SDS011;21818;51.078;12.108;2023-05-10T00:35:04;3.95;;;2.20;;
35699;SDS011;21818;51.078;12.108;2023-05-10T00:37:30;5.07;;;2.20;;
35699;SDS011;21818;51.078;12.108;2023-05-10T00:39:55;2.92;;;2.17;;
35699;SDS011;21818;51.078;12.108;2023-05-10T00:42:21;5.40;;;2.53;;
35699;SDS011;21818;51.078;12.108;2023-05-10T00:44:47;4.85;;;2.30;;
35699;SDS011;21818;51.078;12.108;2023-05-10T00:47:12;3.78;;;2.10;;
35699;SDS011;21818;51.078;12.108;2023-05-10T00:49:38;5.28;;;2.53;;
35699;SDS011;21818;51.078;12.108;2023-05-10T00:52:05;2.50;;;1.92;;
35699;SDS011;21818;51.078;12.108;2023-05-10T00:54:31;6.32;;;2.30;;
35699;SDS011;21818;51.078;12.108;2023-05-10T00:56:56;3.88;;;1.85;;
35699;SDS011;21818;51.078;12.108;2023-05-10T00:59:22;4.38;;;2.13;;
35699;SDS011;21818;51.078;12.108;2023-05-10T01:01:48;2.63;;;2.20;;
35699;SDS011;21818;51.078;12.108;2023-05-10T01:04:14;3.72;;;2.25;;
35699;SDS011;21818;51.078;12.108;2023-05-10T01:06:40;3.72;;;2.75;;
35699;SDS011;21818;51.078;12.108;2023-05-10T01:09:06;3.58;;;2.30;;
35699;SDS011;21818;51.078;12.108;2023-05-10T01:11:33;5.65;;;2.00;;
35699;SDS011;21818;51.078;12.108;2023-05-10T01:14:00;3.47;;;2.30;;
35699;SDS011;21818;51.078;12.108;2023-05-10T01:16:27;3.13;;;2.33;;
35699;SDS011;21818;51.078;12.108;2023-05-10T01:18:54;4.40;;;2.22;;
35699;SDS011;21818;51.078;12.108;2023-05-10T01:21:23;5.68;;;2.40;;
35699;SDS011;21818;51.078;12.108;2023-05-10T01:35:17;2.70;;;2.20;;
35699;SDS011;21818;51.078;12.108;2023-05-10T01:38:07;3.88;;;2.00;;
35699;SDS011;21818;51.078;12.108;2023-05-10T01:40:56;6.07;;;2.17;;
35699;SDS011;21818;51.078;12.108;2023-05-10T01:43:28;3.03;;;2.15;;
35699;SDS011;21818;51.078;12.108;2023-05-10T01:46:02;3.72;;;2.13;;
35699;SDS011;21818;51.078;12.108;2023-05-10T01:48:36;3.40;;;1.92;;
35699;SDS011;21818;51.078;12.108;2023-05-10T01:51:05;3.17;;;2.38;;
35699;SDS011;21818;51.078;12.108;2023-05-10T01:53:31;4.68;;;2.42;;
35699;SDS011;21818;51.078;12.108;2023-05-10T01:55:59;2.53;;;2.10;;
35699;SDS011;21818;51.078;12.108;2023-05-10T01:58:27;5.28;;;2.40;;
35699;SDS011;21818;51.078;12.108;2023-05-10T02:00:56;4.63;;;2.03;;
35699;SDS011;21818;51.078;12.108;2023-05-10T02:03:25;4.22;;;2.08;;
35699;SDS011;21818;51.078;12.108;2023-05-10T02:05:53;3.83;;;2.90;;
35699;SDS011;21818;51.078;12.108;2023-05-10T02:08:20;3.72;;;2.28;;
35699;SDS011;21818;51.078;12.108;2023-05-10T02:10:47;3.75;;;1.83;;
35699;SDS011;21818;51.078;12.108;2023-05-10T02:13:16;4.55;;;2.17;;
35699;SDS011;21818;51.078;12.108;2023-05-10T02:15:43;3.13;;;1.92;;
35699;SDS011;21818;51.078;12.108;2023-05-10T02:18:13;3.65;;;2.25;;
35699;SDS011;21818;51.078;12.108;2023-05-10T02:20:40;4.55;;;2.42;;
35699;SDS011;21818;51.078;12.108;2023-05-10T02:23:07;3.30;;;1.98;;
35699;SDS011;21818;51.078;12.108;2023-05-10T02:25:33;4.38;;;2.00;;
35699;SDS011;21818;51.078;12.108;2023-05-10T02:28:01;3.08;;;1.95;;
35699;SDS011;21818;51.078;12.108;2023-05-10T02:30:29;2.58;;;1.85;;
35699;SDS011;21818;51.078;12.108;2023-05-10T02:32:57;3.05;;;2.15;;
35699;SDS011;21818;51.078;12.108;2023-05-10T02:35:24;3.88;;;2.22;;
35699;SDS011;21818;51.078;12.108;2023-05-10T02:37:51;4.30;;;1.92;;
35699;SDS011;21818;51.078;12.108;2023-05-10T02:40:18;2.50;;;2.03;;
35699;SDS011;21818;51.078;12.108;2023-05-10T02:42:46;3.05;;;2.03;;
35699;SDS011;21818;51.078;12.108;2023-05-10T02:45:15;3.70;;;2.30;;
35699;SDS011;21818;51.078;12.108;2023-05-10T02:47:44;6.30;;;2.47;;
35699;SDS011;21818;51.078;12.108;2023-05-10T02:50:10;2.83;;;2.08;;
35699;SDS011;21818;51.078;12.108;2023-05-10T02:52:39;4.40;;;2.35;;
35699;SDS011;21818;51.078;12.108;2023-05-10T02:55:12;4.07;;;2.22;;
35699;SDS011;21818;51.078;12.108;2023-05-10T02:57:41;4.38;;;2.40;;
35699;SDS011;21818;51.078;12.108;2023-05-10T03:00:13;4.13;;;2.35;;
35699;SDS011;21818;51.078;12.108;2023-05-10T03:02:39;9.18;;;2.45;;
35699;SDS011;21818;51.078;12.108;2023-05-10T03:05:05;4.22;;;2.30;;
35699;SDS011;21818;51.078;12.108;2023-05-10T03:07:31;5.63;;;2.33;;
35699;SDS011;21818;51.078;12.108;2023-05-10T03:09:58;3.17;;;2.05;;
35699;SDS011;21818;51.078;12.108;2023-05-10T03:12:31;5.38;;;2.40;;
35699;SDS011;21818;51.078;12.108;2023-05-10T03:20:43;3.65;;;2.30;;
35699;SDS011;21818;51.078;12.108;2023-05-10T03:23:16;3.40;;;2.00;;
35699;SDS011;21818;51.078;12.108;2023-05-10T03:25:45;2.47;;;2.28;;
35699;SDS011;21818;51.078;12.108;2023-05-10T03:28:12;5.50;;;2.60;;
35699;SDS011;21818;51.078;12.108;2023-05-10T03:30:41;3.33;;;2.10;;
35699;SDS011;21818;51.078;12.108;2023-05-10T03:33:08;4.40;;;2.13;;
35699;SDS011;21818;51.078;12.108;2023-05-10T03:35:33;3.63;;;2.00;;
35699;SDS011;21818;51.078;12.108;2023-05-10T03:37:59;3.08;;;2.30;;
35699;SDS011;21818;51.078;12.108;2023-05-10T03:40:26;3.83;;;2.33;;
35699;SDS011;21818;51.078;12.108;2023-05-10T03:42:53;5.13;;;2.40;;
35699;SDS011;21818;51.078;12.108;2023-05-10T03:45:19;5.65;;;2.60;;
35699;SDS011;21818;51.078;12.108;2023-05-10T03:47:45;9.00;;;3.05;;
35699;SDS011;21818;51.078;12.108;2023-05-10T03:50:10;8.93;;;2.47;;
35699;SDS011;21818;51.078;12.108;2023-05-10T03:52:36;4.60;;;2.40;;
35699;SDS011;21818;51.078;12.108;2023-05-10T03:55:04;5.82;;;2.38;;
35699;SDS011;21818;51.078;12.108;2023-05-10T03:57:37;4.53;;;2.85;;
35699;SDS011;21818;51.078;12.108;2023-05-10T04:00:03;5.28;;;2.22;;
35699;SDS011;21818;51.078;12.108;2023-05-10T04:02:29;4.78;;;2.65;;
35699;SDS011;21818;51.078;12.108;2023-05-10T04:04:55;4.78;;;2.42;;
35699;SDS011;21818;51.078;12.108;2023-05-10T04:07:21;4.05;;;2.00;;
35699;SDS011;21818;51.078;12.108;2023-05-10T04:09:47;6.93;;;2.58;;
35699;SDS011;21818;51.078;12.108;2023-05-10T04:12:12;7.05;;;2.50;;
35699;SDS011;21818;51.078;12.108;2023-05-10T04:14:38;6.15;;;1.95;;
35699;SDS011;21818;51.078;12.108;2023-05-10T04:17:03;5.30;;;2.05;;
35699;SDS011;21818;51.078;12.108;2023-05-10T04:19:32;3.40;;;2.15;;
35699;SDS011;21818;51.078;12.108;2023-05-10T04:21:58;4.90;;;2.55;;
35699;SDS011;21818;51.078;12.108;2023-05-10T04:24:23;4.82;;;2.22;;
35699;SDS011;21818;51.078;12.108;2023-05-10T04:26:49;5.47;;;2.40;;
35699;SDS011;21818;51.078;12.108;2023-05-10T04:29:15;9.38;;;2.92;;
35699;SDS011;21818;51.078;12.108;2023-05-10T04:31:41;14.70;;;2.95;;
35699;SDS011;21818;51.078;12.108;2023-05-10T04:34:06;4.72;;;2.20;;
35699;SDS011;21818;51.078;12.108;2023-05-10T04:36:32;7.05;;;2.20;;
35699;SDS011;21818;51.078;12.108;2023-05-10T04:39:00;5.80;;;1.90;;
35699;SDS011;21818;51.078;12.108;2023-05-10T04:41:25;5.15;;;2.33;;
35699;SDS011;21818;51.078;12.108;2023-05-10T04:43:51;6.10;;;2.55;;
35699;SDS011;21818;51.078;12.108;2023-05-10T04:46:17;8.05;;;2.90;;
35699;SDS011;21818;51.078;12.108;2023-05-10T04:48:42;7.90;;;2.17;;
35699;SDS011;21818;51.078;12.108;2023-05-10T04:51:08;9.02;;;2.80;;
35699;SDS011;21818;51.078;12.108;2023-05-10T04:53:33;10.50;;;2.65;;
35699;SDS011;21818;51.078;12.108;2023-05-10T04:55:59;7.35;;;2.63;;
35699;SDS011;21818;51.078;12.108;2023-05-10T04:58:24;10.13;;;3.20;;
35699;SDS011;21818;51.078;12.108;2023-05-10T05:00:50;8.98;;;2.50;;
35699;SDS011;21818;51.078;12.108;2023-05-10T05:03:16;7.03;;;2.88;;
35699;SDS011;21818;51.078;12.108;2023-05-10T05:05:42;10.90;;;2.58;;
35699;SDS011;21818;51.078;12.108;2023-05-10T05:08:09;8.00;;;2.40;;
35699;SDS011;21818;51.078;12.108;2023-05-10T05:10:34;6.70;;;2.22;;
35699;SDS011;21818;51.078;12.108;2023-05-10T05:13:00;9.68;;;2.50;;
35699;SDS011;21818;51.078;12.108;2023-05-10T05:15:25;5.90;;;2.40;;
35699;SDS011;21818;51.078;12.108;2023-05-10T05:17:51;5.15;;;2.17;;
35699;SDS011;21818;51.078;12.108;2023-05-10T05:20:17;4.03;;;2.22;;
35699;SDS011;21818;51.078;12.108;2023-05-10T05:22:43;4.65;;;1.98;;
35699;SDS011;21818;51.078;12.108;2023-05-10T05:25:09;12.38;;;3.95;;
35699;SDS011;21818;51.078;12.108;2023-05-10T05:27:36;14.00;;;3.58;;
35699;SDS011;21818;51.078;12.108;2023-05-10T05:30:02;10.82;;;3.63;;
35699;SDS011;21818;51.078;12.108;2023-05-10T05:32:28;10.00;;;3.30;;
35699;SDS011;21818;51.078;12.108;2023-05-10T05:34:53;6.75;;;3.30;;
35699;SDS011;21818;51.078;12.108;2023-05-10T05:37:19;9.93;;;3.15;;
35699;SDS011;21818;51.078;12.108;2023-05-10T05:39:46;8.88;;;2.63;;
35699;SDS011;21818;51.078;12.108;2023-05-10T05:42:12;17.92;;;2.70;;
35699;SDS011;21818;51.078;12.108;2023-05-10T05:44:39;4.57;;;2.55;;
35699;SDS011;21818;51.078;12.108;2023-05-10T05:47:05;8.13;;;2.95;;
35699;SDS011;21818;51.078;12.108;2023-05-10T05:49:31;8.20;;;2.55;;
35699;SDS011;21818;51.078;12.108;2023-05-10T05:52:00;5.38;;;2.55;;
35699;SDS011;21818;51.078;12.108;2023-05-10T05:54:26;7.70;;;2.47;;
35699;SDS011;21818;51.078;12.108;2023-05-10T05:56:59;6.35;;;3.28;;
35699;SDS011;21818;51.078;12.108;2023-05-10T05:59:25;4.40;;;2.20;;
35699;SDS011;21818;51.078;12.108;2023-05-10T06:01:51;7.53;;;2.90;;
35699;SDS011;21818;51.078;12.108;2023-05-10T06:04:17;5.82;;;2.45;;
35699;SDS011;21818;51.078;12.108;2023-05-10T06:06:43;6.63;;;2.55;;
35699;SDS011;21818;51.078;12.108;2023-05-10T06:09:09;5.40;;;2.65;;
35699;SDS011;21818;51.078;12.108;2023-05-10T06:11:35;5.13;;;2.60;;
35699;SDS011;21818;51.078;12.108;2023-05-10T06:14:02;7.20;;;2.45;;
35699;SDS011;21818;51.078;12.108;2023-05-10T06:16:34;6.20;;;2.65;;
35699;SDS011;21818;51.078;12.108;2023-05-10T06:19:00;6.18;;;2.40;;
35699;SDS011;21818;51.078;12.108;2023-05-10T06:21:25;5.60;;;2.53;;
35699;SDS011;21818;51.078;12.108;2023-05-10T06:23:51;7.13;;;2.42;;
35699;SDS011;21818;51.078;12.108;2023-05-10T06:26:16;4.10;;;2.35;;
35699;SDS011;21818;51.078;12.108;2023-05-10T06:28:42;4.32;;;2.38;;
35699;SDS011;21818;51.078;12.108;2023-05-10T06:31:08;4.53;;;2.33;;
35699;SDS011;21818;51.078;12.108;2023-05-10T06:33:33;5.10;;;2.45;;
35699;SDS011;21818;51.078;12.108;2023-05-10T06:35:59;8.13;;;2.50;;
35699;SDS011;21818;51.078;12.108;2023-05-10T06:38:25;4.72;;;2.10;;
35699;SDS011;21818;51.078;12.108;2023-05-10T06:40:50;3.63;;;2.00;;
35699;SDS011;21818;51.078;12.108;2023-05-10T06:43:16;5.18;;;2.92;;
35699;SDS011;21818;51.078;12.108;2023-05-10T06:45:42;5.55;;;2.33;;
35699;SDS011;21818;51.078;12.108;2023-05-10T06:48:08;5.43;;;2.25;;
35699;SDS011;21818;51.078;12.108;2023-05-10T06:50:33;5.35;;;2.45;;
35699;SDS011;21818;51.078;12.108;2023-05-10T06:53:00;6.55;;;2.58;;
35699;SDS011;21818;51.078;12.108;2023-05-10T06:55:26;5.88;;;2.63;;
35699;SDS011;21818;51.078;12.108;2023-05-10T06:57:52;6.95;;;3.65;;
35699;SDS011;21818;51.078;12.108;2023-05-10T07:00:19;4.68;;;2.53;;
35699;SDS011;21818;51.078;12.108;2023-05-10T07:02:45;6.03;;;2.60;;
35699;SDS011;21818;51.078;12.108;2023-05-10T07:05:11;13.57;;;4.43;;
35699;SDS011;21818;51.078;12.108;2023-05-10T07:07:37;14.85;;;4.25;;
35699;SDS011;21818;51.078;12.108;2023-05-10T07:10:03;8.10;;;3.60;;
35699;SDS011;21818;51.078;12.108;2023-05-10T07:12:29;9.32;;;3.90;;
35699;SDS011;21818;51.078;12.108;2023-05-10T07:14:54;9.15;;;3.30;;
35699;SDS011;21818;51.078;12.108;2023-05-10T07:17:20;7.10;;;3.38;;
35699;SDS011;21818;51.078;12.108;2023-05-10T07:19:45;8.27;;;3.60;;
35699;SDS011;21818;51.078;12.108;2023-05-10T07:22:11;11.80;;;4.07;;
35699;SDS011;21818;51.078;12.108;2023-05-10T07:24:37;9.73;;;3.80;;
35699;SDS011;21818;51.078;12.108;2023-05-10T07:27:02;7.15;;;3.30;;
35699;SDS011;21818;51.078;12.108;2023-05-10T07:29:29;7.22;;;3.50;;
35699;SDS011;21818;51.078;12.108;2023-05-10T07:31:54;10.50;;;4.00;;
35699;SDS011;21818;51.078;12.108;2023-05-10T07:34:21;8.13;;;3.35;;
35699;SDS011;21818;51.078;12.108;2023-05-10T07:36:47;4.28;;;2.95;;
35699;SDS011;21818;51.078;12.108;2023-05-10T07:39:12;6.82;;;3.40;;
35699;SDS011;21818;51.078;12.108;2023-05-10T07:41:38;7.50;;;3.20;;
35699;SDS011;21818;51.078;12.108;2023-05-10T07:44:04;4.40;;;3.03;;
35699;SDS011;21818;51.078;12.108;2023-05-10T07:46:30;8.27;;;3.40;;
35699;SDS011;21818;51.078;12.108;2023-05-10T07:48:56;7.00;;;3.42;;
35699;SDS011;21818;51.078;12.108;2023-05-10T07:51:21;5.38;;;3.30;;
35699;SDS011;21818;51.078;12.108;2023-05-10T07:53:47;6.28;;;2.88;;
35699;SDS011;21818;51.078;12.108;2023-05-10T07:56:20;6.70;;;3.28;;
35699;SDS011;21818;51.078;12.108;2023-05-10T07:58:50;5.45;;;2.72;;
35699;SDS011;21818;51.078;12.108;2023-05-10T08:01:16;3.90;;;2.67;;
35699;SDS011;21818;51.078;12.108;2023-05-10T08:03:41;4.75;;;2.80;;
35699;SDS011;21818;51.078;12.108;2023-05-10T08:06:07;5.43;;;2.70;;
35699;SDS011;21818;51.078;12.108;2023-05-10T08:08:32;4.75;;;2.90;;
35699;SDS011;21818;51.078;12.108;2023-05-10T08:10:58;3.45;;;2.58;;
35699;SDS011;21818;51.078;12.108;2023-05-10T08:13:23;6.93;;;2.40;;
35699;SDS011;21818;51.078;12.108;2023-05-10T08:15:49;3.97;;;2.65;;
35699;SDS011;21818;51.078;12.108;2023-05-10T08:18:17;3.28;;;2.70;;
35699;SDS011;21818;51.078;12.108;2023-05-10T08:20:43;3.50;;;2.53;;
35699;SDS011;21818;51.078;12.108;2023-05-10T08:23:09;3.33;;;2.45;;
35699;SDS011;21818;51.078;12.108;2023-05-10T08:25:34;4.20;;;2.38;;
35699;SDS011;21818;51.078;12.108;2023-05-10T08:28:00;4.18;;;2.47;;
35699;SDS011;21818;51.078;12.108;2023-05-10T08:30:25;3.92;;;2.55;;
35699;SDS011;21818;51.078;12.108;2023-05-10T08:32:51;3.38;;;2.38;;
35699;SDS011;21818;51.078;12.108;2023-05-10T08:35:16;2.60;;;2.10;;
35699;SDS011;21818;51.078;12.108;2023-05-10T08:37:42;4.28;;;2.47;;
35699;SDS011;21818;51.078;12.108;2023-05-10T08:40:08;6.20;;;2.45;;
35699;SDS011;21818;51.078;12.108;2023-05-10T08:42:36;4.30;;;2.70;;
35699;SDS011;21818;51.078;12.108;2023-05-10T08:45:06;3.95;;;2.88;;
35699;SDS011;21818;51.078;12.108;2023-05-10T08:47:32;6.63;;;2.63;;
35699;SDS011;21818;51.078;12.108;2023-05-10T08:49:59;4.65;;;2.80;;
35699;SDS011;21818;51.078;12.108;2023-05-10T08:52:25;4.05;;;2.60;;
35699;SDS011;21818;51.078;12.108;2023-05-10T08:54:53;8.20;;;2.80;;
35699;SDS011;21818;51.078;12.108;2023-05-10T08:57:18;4.20;;;2.40;;
35699;SDS011;21818;51.078;12.108;2023-05-10T08:59:44;5.32;;;3.15;;
35699;SDS011;21818;51.078;12.108;2023-05-10T09:02:11;5.20;;;2.90;;
35699;SDS011;21818;51.078;12.108;2023-05-10T09:04:38;5.93;;;2.88;;
35699;SDS011;21818;51.078;12.108;2023-05-10T09:07:03;4.13;;;2.50;;
35699;SDS011;21818;51.078;12.108;2023-05-10T09:09:29;3.20;;;2.22;;
35699;SDS011;21818;51.078;12.108;2023-05-10T09:11:55;4.13;;;2.60;;
35699;SDS011;21818;51.078;12.108;2023-05-10T09:14:21;5.20;;;2.47;;
35699;SDS011;21818;51.078;12.108;2023-05-10T09:16:49;4.20;;;2.67;;
35699;SDS011;21818;51.078;12.108;2023-05-10T09:19:15;3.40;;;2.30;;
35699;SDS011;21818;51.078;12.108;2023-05-10T09:21:40;4.13;;;2.47;;
35699;SDS011;21818;51.078;12.108;2023-05-10T09:24:07;6.43;;;2.30;;
35699;SDS011;21818;51.078;12.108;2023-05-10T09:26:34;6.03;;;2.75;;
35699;SDS011;21818;51.078;12.108;2023-05-10T09:29:00;3.53;;;2.33;;
35699;SDS011;21818;51.078;12.108;2023-05-10T09:31:42;5.97;;;2.97;;
35699;SDS011;21818;51.078;12.108;2023-05-10T09:34:30;5.13;;;2.95;;
35699;SDS011;21818;51.078;12.108;2023-05-10T09:36:58;3.35;;;2.55;;
35699;SDS011;21818;51.078;12.108;2023-05-10T09:39:35;4.70;;;2.47;;
35699;SDS011;21818;51.078;12.108;2023-05-10T09:42:03;3.63;;;2.67;;
35699;SDS011;21818;51.078;12.108;2023-05-10T09:44:33;4.35;;;2.40;;
35699;SDS011;21818;51.078;12.108;2023-05-10T09:47:00;3.70;;;2.80;;
35699;SDS011;21818;51.078;12.108;2023-05-10T09:49:26;4.28;;;2.50;;
35699;SDS011;21818;51.078;12.108;2023-05-10T09:52:01;5.28;;;2.72;;
35699;SDS011;21818;51.078;12.108;2023-05-10T09:54:28;4.35;;;2.85;;
35699;SDS011;21818;51.078;12.108;2023-05-10T09:56:54;3.92;;;2.80;;
35699;SDS011;21818;51.078;12.108;2023-05-10T09:59:20;4.65;;;2.60;;
35699;SDS011;21818;51.078;12.108;2023-05-10T10:01:49;2.95;;;2.38;;
35699;SDS011;21818;51.078;12.108;2023-05-10T10:04:16;4.60;;;2.70;;
35699;SDS011;21818;51.078;12.108;2023-05-10T10:06:42;5.82;;;2.30;;
35699;SDS011;21818;51.078;12.108;2023-05-10T10:09:08;3.95;;;2.33;;
35699;SDS011;21818;51.078;12.108;2023-05-10T10:11:37;4.90;;;3.10;;
35699;SDS011;21818;51.078;12.108;2023-05-10T10:14:03;5.13;;;2.50;;
35699;SDS011;21818;51.078;12.108;2023-05-10T10:16:30;3.90;;;2.05;;
35699;SDS011;21818;51.078;12.108;2023-05-10T10:18:57;2.97;;;2.50;;
35699;SDS011;21818;51.078;12.108;2023-05-10T10:21:23;3.42;;;2.45;;
35699;SDS011;21818;51.078;12.108;2023-05-10T10:23:49;4.20;;;2.40;;
35699;SDS011;21818;51.078;12.108;2023-05-10T10:26:15;3.80;;;2.75;;
35699;SDS011;21818;51.078;12.108;2023-05-10T10:29:04;3.72;;;2.33;;
35699;SDS011;21818;51.078;12.108;2023-05-10T10:34:36;4.30;;;2.80;;
35699;SDS011;21818;51.078;12.108;2023-05-10T10:37:04;4.30;;;3.05;;
35699;SDS011;21818;51.078;12.108;2023-05-10T10:39:31;3.25;;;2.58;;
35699;SDS011;21818;51.078;12.108;2023-05-10T10:41:58;5.88;;;3.15;;
35699;SDS011;21818;51.078;12.108;2023-05-10T10:47:10;7.05;;;3.13;;
35699;SDS011;21818;51.078;12.108;2023-05-10T10:50:03;4.07;;;2.85;;
35699;SDS011;21818;51.078;12.108;2023-05-10T10:52:34;4.25;;;3.17;;
35699;SDS011;21818;51.078;12.108;2023-05-10T10:57:28;4.70;;;2.70;;
35699;SDS011;21818;51.078;12.108;2023-05-10T11:08:12;3.72;;;2.63;;
35699;SDS011;21818;51.078;12.108;2023-05-10T11:10:39;4.45;;;2.90;;
35699;SDS011;21818;51.078;12.108;2023-05-10T11:13:16;4.97;;;3.88;;
35699;SDS011;21818;51.078;12.108;2023-05-10T11:15:58;4.70;;;3.08;;
35699;SDS011;21818;51.078;12.108;2023-05-10T11:18:28;3.60;;;2.70;;
35699;SDS011;21818;51.078;12.108;2023-05-10T11:20:58;3.80;;;2.92;;
35699;SDS011;21818;51.078;12.108;2023-05-10T11:25:58;4.18;;;2.70;;
35699;SDS011;21818;51.078;12.108;2023-05-10T11:28:26;4.00;;;2.78;;
35699;SDS011;21818;51.078;12.108;2023-05-10T11:30:53;5.15;;;2.47;;
35699;SDS011;21818;51.078;12.108;2023-05-10T11:33:20;5.15;;;3.33;;
35699;SDS011;21818;51.078;12.108;2023-05-10T11:35:46;6.03;;;2.85;;
35699;SDS011;21818;51.078;12.108;2023-05-10T11:38:12;4.20;;;3.08;;
35699;SDS011;21818;51.078;12.108;2023-05-10T11:40:38;4.03;;;3.15;;
35699;SDS011;21818;51.078;12.108;2023-05-10T11:43:05;4.22;;;2.63;;
35699;SDS011;21818;51.078;12.108;2023-05-10T11:45:34;5.65;;;2.92;;
35699;SDS011;21818;51.078;12.108;2023-05-10T11:48:00;4.78;;;2.97;;
35699;SDS011;21818;51.078;12.108;2023-05-10T11:50:26;3.28;;;2.97;;
35699;SDS011;21818;51.078;12.108;2023-05-10T11:52:53;8.23;;;3.40;;
35699;SDS011;21818;51.078;12.108;2023-05-10T11:55:19;3.38;;;2.90;;
35699;SDS011;21818;51.078;12.108;2023-05-10T11:57:45;5.75;;;3.35;;
35699;SDS011;21818;51.078;12.108;2023-05-10T12:00:12;5.13;;;3.30;;
35699;SDS011;21818;51.078;12.108;2023-05-10T12:02:38;4.70;;;2.60;;
35699;SDS011;21818;51.078;12.108;2023-05-10T12:05:04;4.70;;;3.25;;
35699;SDS011;21818;51.078;12.108;2023-05-10T12:07:30;4.10;;;2.63;;
35699;SDS011;21818;51.078;12.108;2023-05-10T12:10:03;6.32;;;3.08;;
35699;SDS011;21818;51.078;12.108;2023-05-10T12:12:43;4.50;;;3.13;;
35699;SDS011;21818;51.078;12.108;2023-05-10T12:15:10;4.00;;;2.73;;
35699;SDS011;21818;51.078;12.108;2023-05-10T12:17:38;4.93;;;3.03;;
35699;SDS011;21818;51.078;12.108;2023-05-10T12:20:15;3.25;;;2.63;;
35699;SDS011;21818;51.078;12.108;2023-05-10T12:22:54;3.88;;;2.38;;
35699;SDS011;21818;51.078;12.108;2023-05-10T12:25:22;4.03;;;2.63;;
35699;SDS011;21818;51.078;12.108;2023-05-10T12:27:50;5.30;;;2.90;;
35699;SDS011;21818;51.078;12.108;2023-05-10T12:32:49;4.30;;;2.55;;
35699;SDS011;21818;51.078;12.108;2023-05-10T12:35:16;5.00;;;2.40;;
35699;SDS011;21818;51.078;12.108;2023-05-10T12:37:42;4.75;;;2.45;;
35699;SDS011;21818;51.078;12.108;2023-05-10T12:40:08;4.00;;;2.47;;
35699;SDS011;21818;51.078;12.108;2023-05-10T12:42:36;4.28;;;2.33;;
35699;SDS011;21818;51.078;12.108;2023-05-10T12:45:03;4.20;;;2.30;;
35699;SDS011;21818;51.078;12.108;2023-05-10T12:47:30;5.07;;;2.40;;
35699;SDS011;21818;51.078;12.108;2023-05-10T12:49:56;1.60;;;1.35;;
35699;SDS011;21818;51.078;12.108;2023-05-10T12:52:22;3.05;;;1.38;;
35699;SDS011;21818;51.078;12.108;2023-05-10T12:54:47;1.83;;;1.50;;
35699;SDS011;21818;51.078;12.108;2023-05-10T12:57:14;3.72;;;1.20;;
35699;SDS011;21818;51.078;12.108;2023-05-10T12:59:39;1.83;;;1.27;;
35699;SDS011;21818;51.078;12.108;2023-05-10T13:02:05;1.63;;;1.08;;
35699;SDS011;21818;51.078;12.108;2023-05-10T13:04:31;1.60;;;1.50;;
35699;SDS011;21818;51.078;12.108;2023-05-10T13:06:57;3.42;;;1.48;;
35699;SDS011;21818;51.078;12.108;2023-05-10T13:09:24;2.20;;;1.08;;
35699;SDS011;21818;51.078;12.108;2023-05-10T13:11:51;1.63;;;0.90;;
35699;SDS011;21818;51.078;12.108;2023-05-10T13:14:18;1.85;;;0.93;;
35699;SDS011;21818;51.078;12.108;2023-05-10T13:16:45;1.70;;;1.05;;
35699;SDS011;21818;51.078;12.108;2023-05-10T13:19:11;2.70;;;1.17;;
35699;SDS011;21818;51.078;12.108;2023-05-10T13:21:37;1.58;;;0.80;;
35699;SDS011;21818;51.078;12.108;2023-05-10T13:24:03;1.13;;;0.90;;
35699;SDS011;21818;51.078;12.108;2023-05-10T13:26:28;2.25;;;1.17;;
35699;SDS011;21818;51.078;12.108;2023-05-10T13:28:54;4.30;;;1.15;;
35699;SDS011;21818;51.078;12.108;2023-05-10T13:31:20;1.77;;;1.00;;
35699;SDS011;21818;51.078;12.108;2023-05-10T13:33:46;1.92;;;0.85;;
35699;SDS011;21818;51.078;12.108;2023-05-10T13:36:11;2.28;;;1.17;;
35699;SDS011;21818;51.078;12.108;2023-05-10T13:38:37;1.48;;;1.08;;
35699;SDS011;21818;51.078;12.108;2023-05-10T13:41:02;2.80;;;1.20;;
35699;SDS011;21818;51.078;12.108;2023-05-10T13:43:28;2.75;;;1.10;;
35699;SDS011;21818;51.078;12.108;2023-05-10T13:45:54;3.33;;;0.93;;
35699;SDS011;21818;51.078;12.108;2023-05-10T13:48:20;3.38;;;1.25;;
35699;SDS011;21818;51.078;12.108;2023-05-10T13:50:46;2.80;;;0.93;;
35699;SDS011;21818;51.078;12.108;2023-05-10T13:53:11;1.65;;;1.15;;
35699;SDS011;21818;51.078;12.108;2023-05-10T13:55:37;1.40;;;1.02;;
35699;SDS011;21818;51.078;12.108;2023-05-10T13:58:03;2.53;;;1.00;;
35699;SDS011;21818;51.078;12.108;2023-05-10T14:00:28;1.60;;;0.80;;
35699;SDS011;21818;51.078;12.108;2023-05-10T14:02:54;1.63;;;0.65;;
35699;SDS011;21818;51.078;12.108;2023-05-10T14:05:20;1.20;;;0.65;;
35699;SDS011;21818;51.078;12.108;2023-05-10T14:07:45;1.13;;;1.02;;
35699;SDS011;21818;51.078;12.108;2023-05-10T14:10:11;0.70;;;0.60;;
35699;SDS011;21818;51.078;12.108;2023-05-10T14:12:37;0.95;;;0.50;;
35699;SDS011;21818;51.078;12.108;2023-05-10T14:15:03;2.63;;;0.90;;
35699;SDS011;21818;51.078;12.108;2023-05-10T14:17:30;2.67;;;1.10;;
35699;SDS011;21818;51.078;12.108;2023-05-10T14:19:56;0.82;;;0.63;;
35699;SDS011;21818;51.078;12.108;2023-05-10T14:22:22;1.73;;;0.80;;
35699;SDS011;21818;51.078;12.108;2023-05-10T14:24:48;4.07;;;1.00;;
35699;SDS011;21818;51.078;12.108;2023-05-10T14:27:13;0.90;;;0.80;;
35699;SDS011;21818;51.078;12.108;2023-05-10T14:29:40;1.08;;;0.70;;
35699;SDS011;21818;51.078;12.108;2023-05-10T14:32:05;3.40;;;0.98;;
35699;SDS011;21818;51.078;12.108;2023-05-10T14:34:31;1.55;;;0.80;;
35699;SDS011;21818;51.078;12.108;2023-05-10T14:36:57;2.15;;;0.70;;
35699;SDS011;21818;51.078;12.108;2023-05-10T14:39:23;3.90;;;1.05;;
35699;SDS011;21818;51.078;12.108;2023-05-10T14:41:48;1.13;;;0.80;;
35699;SDS011;21818;51.078;12.108;2023-05-10T14:44:16;2.35;;;0.60;;
35699;SDS011;21818;51.078;12.108;2023-05-10T14:46:41;0.85;;;0.60;;
35699;SDS011;21818;51.078;12.108;2023-05-10T14:49:07;2.85;;;0.68;;
35699;SDS011;21818;51.078;12.108;2023-05-10T14:51:33;1.38;;;0.80;;
35699;SDS011;21818;51.078;12.108;2023-05-10T14:53:58;1.52;;;0.73;;
35699;SDS011;21818;51.078;12.108;2023-05-10T14:56:24;1.63;;;0.68;;
35699;SDS011;21818;51.078;12.108;2023-05-10T14:58:50;2.55;;;0.70;;
35699;SDS011;21818;51.078;12.108;2023-05-10T15:01:16;0.90;;;0.40;;
35699;SDS011;21818;51.078;12.108;2023-05-10T15:03:42;0.65;;;0.45;;
35699;SDS011;21818;51.078;12.108;2023-05-10T15:06:07;2.78;;;1.23;;
35699;SDS011;21818;51.078;12.108;2023-05-10T15:08:33;1.02;;;0.60;;
35699;SDS011;21818;51.078;12.108;2023-05-10T15:10:59;0.75;;;0.50;;